createdAt,value
2018-03-20T00:01:14.531Z,59.82
2018-03-20T00:03:41.948Z,60.02
2018-03-20T00:06:09.343Z,58.68
2018-03-20T00:08:36.907Z,58.90
2018-03-20T00:11:04.303Z,59.82
2018-03-20T00:13:31.707Z,60.12
2018-03-20T00:15:59.115Z,59.40
2018-03-20T00:18:26.559Z,59.70
2018-03-20T00:20:53.973Z,58.72
2018-03-20T00:23:21.364Z,58.09
2018-03-20T00:25:48.919Z,57.71
2018-03-20T00:28:16.326Z,57.89
2018-03-20T00:30:43.719Z,57.87
2018-03-20T00:33:11.232Z,58.06
2018-03-20T00:35:38.622Z,57.61
2018-03-20T00:38:06.014Z,57.39
2018-03-20T00:40:33.419Z,57.39
2018-03-20T00:43:00.824Z,57.21
2018-03-20T00:45:28.228Z,57.05
2018-03-20T00:47:55.918Z,57.62
2018-03-20T00:50:23.315Z,57.50
2018-03-20T00:52:50.699Z,56.95
2018-03-20T00:55:18.127Z,56.49
2018-03-20T00:57:45.513Z,56.36
2018-03-20T01:00:12.927Z,56.35
2018-03-20T01:02:40.323Z,55.47
2018-03-20T01:05:07.727Z,55.12
2018-03-20T01:07:35.123Z,54.93
2018-03-20T01:10:02.535Z,54.64
2018-03-20T01:12:29.926Z,54.51
2018-03-20T01:14:57.319Z,53.93
2018-03-20T01:17:24.743Z,53.58
2018-03-20T01:19:52.141Z,53.29
2018-03-20T01:22:19.540Z,52.95
2018-03-20T01:24:46.966Z,52.51
2018-03-20T01:27:14.355Z,52.67
2018-03-20T01:29:41.767Z,52.80
2018-03-20T01:32:09.163Z,52.82
2018-03-20T01:34:36.554Z,52.96
2018-03-20T01:37:03.967Z,53.14
2018-03-20T01:39:31.380Z,53.32
2018-03-20T01:41:58.771Z,53.41
2018-03-20T01:44:26.173Z,53.68
2018-03-20T01:46:53.555Z,53.54
2018-03-20T01:49:20.959Z,53.62
2018-03-20T01:51:48.354Z,53.42
2018-03-20T01:54:15.753Z,53.79
2018-03-20T01:56:43.138Z,54.17
2018-03-20T01:59:10.535Z,54.22
2018-03-20T02:01:37.940Z,53.65
2018-03-20T02:04:05.336Z,53.66
2018-03-20T02:06:32.716Z,53.47
2018-03-20T02:09:00.116Z,53.34
2018-03-20T02:11:27.507Z,53.28
2018-03-20T02:13:54.915Z,53.04
2018-03-20T02:16:28.084Z,52.88
2018-03-20T02:18:55.498Z,53.95
2018-03-20T02:21:22.878Z,55.56
2018-03-20T02:23:50.295Z,55.60
2018-03-20T02:26:17.675Z,55.38
2018-03-20T02:28:45.082Z,56.27
2018-03-20T02:31:12.483Z,56.51
2018-03-20T02:33:39.882Z,57.06
2018-03-20T02:36:07.287Z,57.34
2018-03-20T02:38:34.684Z,58.86
2018-03-20T02:41:02.084Z,58.83
2018-03-20T02:43:29.485Z,59.05
2018-03-20T02:45:56.885Z,59.13
2018-03-20T02:48:24.285Z,59.48
2018-03-20T02:50:51.676Z,59.59
2018-03-20T02:53:19.431Z,59.72
2018-03-20T02:55:46.831Z,59.07
2018-03-20T02:58:14.227Z,59.61
2018-03-20T03:00:41.641Z,60.01
2018-03-20T03:03:09.031Z,60.31
2018-03-20T03:05:36.444Z,63.10
2018-03-20T03:08:03.829Z,66.29
2018-03-20T03:10:31.221Z,65.45
2018-03-20T03:12:58.637Z,68.27
2018-03-20T03:15:26.019Z,68.21
2018-03-20T03:17:53.622Z,70.88
2018-03-20T03:20:21.013Z,74.60
2018-03-20T03:22:48.394Z,76.63
2018-03-20T03:25:15.803Z,77.34
2018-03-20T03:27:43.191Z,77.38
2018-03-20T03:30:10.599Z,77.59
2018-03-20T03:32:37.998Z,77.97
2018-03-20T03:35:05.378Z,76.40
2018-03-20T03:37:32.796Z,74.14
2018-03-20T03:40:00.192Z,73.50
2018-03-20T03:42:27.609Z,73.54
2018-03-20T03:44:54.994Z,73.29
2018-03-20T03:47:22.391Z,73.78
2018-03-20T03:49:49.800Z,73.87
2018-03-20T03:52:17.483Z,74.49
2018-03-20T03:54:44.902Z,76.45
2018-03-20T03:57:12.287Z,76.15
2018-03-20T03:59:39.696Z,77.22
2018-03-20T04:02:07.311Z,78.91
2018-03-20T04:04:34.710Z,79.28
2018-03-20T04:07:02.108Z,79.18
2018-03-20T04:09:29.516Z,79.07
2018-03-20T04:11:56.906Z,79.08
2018-03-20T04:14:24.426Z,79.02
2018-03-20T04:16:51.815Z,79.37
2018-03-20T04:19:19.216Z,78.66
2018-03-20T04:21:46.627Z,78.50
2018-03-20T04:24:14.006Z,79.15
2018-03-20T04:26:41.454Z,79.35
2018-03-20T04:29:08.832Z,79.13
2018-03-20T04:31:36.246Z,78.38
2018-03-20T04:34:03.640Z,79.27
2018-03-20T04:36:31.045Z,79.51
2018-03-20T04:38:58.439Z,79.57
2018-03-20T04:41:25.831Z,79.13
2018-03-20T04:43:53.240Z,77.71
2018-03-20T04:46:20.651Z,79.57
2018-03-20T04:48:48.054Z,80.05
2018-03-20T04:51:15.462Z,80.09
2018-03-20T04:53:42.862Z,79.80
2018-03-20T04:56:10.268Z,80.00
2018-03-20T04:58:37.770Z,80.21
2018-03-20T05:01:05.163Z,80.08
2018-03-20T05:03:32.567Z,79.01
2018-03-20T05:06:00.129Z,79.91
2018-03-20T05:08:27.526Z,80.28
2018-03-20T05:10:54.920Z,80.57
2018-03-20T05:13:22.331Z,79.29
2018-03-20T05:15:49.726Z,79.65
2018-03-20T05:18:17.122Z,79.70
2018-03-20T05:20:50.102Z,79.29
2018-03-20T05:23:22.456Z,79.68
2018-03-20T05:25:50.007Z,80.64
2018-03-20T05:28:17.403Z,80.98
2018-03-20T05:30:44.812Z,80.82
2018-03-20T05:33:12.216Z,80.33
2018-03-20T05:35:39.633Z,80.38
2018-03-20T05:38:07.027Z,80.39
2018-03-20T05:40:34.426Z,80.41
2018-03-20T05:43:02.100Z,80.13
2018-03-20T05:45:29.491Z,78.27
2018-03-20T05:48:02.596Z,76.29
2018-03-20T05:50:35.691Z,75.13
2018-03-20T05:53:03.475Z,75.53
2018-03-20T05:55:30.876Z,75.72
2018-03-20T05:57:58.267Z,76.21
2018-03-20T06:00:25.684Z,75.96
2018-03-20T06:02:53.193Z,76.20
2018-03-20T06:05:20.587Z,76.11
2018-03-20T06:07:47.982Z,76.10
2018-03-20T06:10:15.404Z,75.96
2018-03-20T06:12:42.802Z,78.27
2018-03-20T06:15:10.192Z,78.89
2018-03-20T06:17:37.623Z,78.79
2018-03-20T06:20:05.017Z,78.68
2018-03-20T06:22:32.431Z,79.32
2018-03-20T06:24:59.823Z,79.28
2018-03-20T06:27:27.234Z,79.99
2018-03-20T06:29:54.899Z,79.97
2018-03-20T06:32:22.297Z,80.17
2018-03-20T06:34:49.695Z,80.43
2018-03-20T06:37:17.116Z,79.89
2018-03-20T06:39:44.527Z,79.50
2018-03-20T06:42:11.941Z,80.41
2018-03-20T06:44:39.339Z,80.56
2018-03-20T06:47:06.763Z,80.80
2018-03-20T06:49:34.159Z,80.70
2018-03-20T06:52:01.624Z,80.77
2018-03-20T06:54:29.043Z,80.66
2018-03-20T06:56:56.441Z,81.28
2018-03-20T06:59:23.852Z,81.15
2018-03-20T07:01:51.247Z,80.82
2018-03-20T07:04:18.655Z,81.03
2018-03-20T07:06:46.072Z,81.09
2018-03-20T07:09:13.501Z,81.02
2018-03-20T07:11:40.892Z,81.37
2018-03-20T07:14:08.287Z,81.86
2018-03-20T07:16:35.690Z,81.78
2018-03-20T07:19:03.083Z,81.00
2018-03-20T07:21:30.497Z,81.57
2018-03-20T07:23:57.895Z,81.05
2018-03-20T07:26:25.652Z,80.48
2018-03-20T07:28:53.054Z,80.03
2018-03-20T07:31:20.447Z,78.92
2018-03-20T07:33:47.842Z,78.26
2018-03-20T07:36:15.255Z,77.33
2018-03-20T07:38:42.643Z,76.98
2018-03-20T07:41:10.047Z,76.10
2018-03-20T07:43:37.626Z,75.19
2018-03-20T07:46:05.340Z,74.99
2018-03-20T07:48:32.740Z,74.70
2018-03-20T07:51:00.181Z,74.04
2018-03-20T07:53:27.584Z,73.42
2018-03-20T07:55:54.977Z,73.57
2018-03-20T07:58:22.396Z,72.99
2018-03-20T08:00:49.929Z,72.57
2018-03-20T08:03:17.333Z,71.93
2018-03-20T08:05:44.708Z,71.33
2018-03-20T08:08:12.106Z,70.62
2018-03-20T08:10:39.503Z,70.57
2018-03-20T08:13:06.910Z,69.84
2018-03-20T08:15:34.306Z,69.22
2018-03-20T08:18:01.711Z,69.42
2018-03-20T08:20:29.120Z,68.69
2018-03-20T08:22:56.516Z,68.78
2018-03-20T08:25:23.923Z,67.46
2018-03-20T08:27:51.311Z,67.13
2018-03-20T08:30:18.716Z,66.65
2018-03-20T08:32:46.091Z,65.50
2018-03-20T08:35:13.503Z,66.16
2018-03-20T08:37:40.891Z,65.82
2018-03-20T08:40:08.548Z,64.88
2018-03-20T08:42:35.928Z,63.59
2018-03-20T08:45:03.315Z,62.65
2018-03-20T08:47:30.742Z,60.27
2018-03-20T08:49:58.177Z,59.54
2018-03-20T08:52:25.803Z,58.95
2018-03-20T08:54:53.188Z,58.60
2018-03-20T08:57:20.583Z,58.05
2018-03-20T08:59:47.981Z,57.82
2018-03-20T09:02:15.372Z,57.19
2018-03-20T09:04:42.775Z,58.36
2018-03-20T09:07:10.164Z,57.04
2018-03-20T09:09:37.578Z,56.90
2018-03-20T09:12:04.965Z,57.28
2018-03-20T09:14:32.371Z,56.28
2018-03-20T09:16:59.765Z,56.54
2018-03-20T09:19:27.168Z,54.97
2018-03-20T09:21:54.584Z,54.43
2018-03-20T09:24:21.971Z,52.65
2018-03-20T09:26:49.375Z,52.85
2018-03-20T09:29:16.756Z,53.08
2018-03-20T09:31:44.200Z,52.37
2018-03-20T09:34:11.566Z,53.08
2018-03-20T09:36:38.955Z,52.61
2018-03-20T09:39:06.504Z,53.63
2018-03-20T09:41:33.882Z,54.32
2018-03-20T09:44:01.343Z,54.25
2018-03-20T09:46:28.731Z,54.89
2018-03-20T09:48:56.124Z,55.21
2018-03-20T09:51:23.524Z,55.83
2018-03-20T09:53:50.915Z,55.49
2018-03-20T09:56:18.319Z,54.88
2018-03-20T09:58:45.719Z,55.39
2018-03-20T10:01:13.139Z,54.06
2018-03-20T10:03:40.533Z,54.94
2018-03-20T10:06:07.987Z,55.79
2018-03-20T10:08:35.320Z,54.40
2018-03-20T10:11:02.723Z,55.03
2018-03-20T10:13:30.119Z,56.14
2018-03-20T10:15:57.509Z,57.09
2018-03-20T10:18:24.948Z,56.63
2018-03-20T10:20:52.440Z,55.27
2018-03-20T10:23:19.819Z,54.20
2018-03-20T10:25:47.223Z,52.90
2018-03-20T10:28:14.624Z,53.20
2018-03-20T10:30:42.025Z,53.08
2018-03-20T10:33:09.420Z,51.63
2018-03-20T10:35:36.816Z,50.37
2018-03-20T10:38:04.216Z,50.93
2018-03-20T10:40:31.607Z,51.52
2018-03-20T10:42:59.075Z,51.08
2018-03-20T10:45:26.472Z,51.15
2018-03-20T10:47:53.871Z,50.16
2018-03-20T10:50:21.262Z,50.06
2018-03-20T10:52:48.672Z,50.17
2018-03-20T10:55:16.073Z,48.63
2018-03-20T10:57:43.463Z,48.07
2018-03-20T11:00:10.889Z,47.69
2018-03-20T11:02:43.951Z,46.97
2018-03-20T11:05:11.361Z,46.29
2018-03-20T11:07:38.797Z,45.43
2018-03-20T11:10:06.199Z,45.07
2018-03-20T11:12:33.605Z,44.77
2018-03-20T11:15:01.024Z,44.92
2018-03-20T11:17:28.430Z,45.35
2018-03-20T11:19:55.843Z,44.99
2018-03-20T11:22:23.379Z,44.44
2018-03-20T11:24:50.771Z,44.14
2018-03-20T11:27:18.270Z,44.59
2018-03-20T11:29:45.672Z,43.18
2018-03-20T11:32:13.212Z,43.52
2018-03-20T11:34:40.666Z,43.81
2018-03-20T11:37:08.078Z,43.48
2018-03-20T11:39:35.508Z,43.42
2018-03-20T11:42:02.854Z,43.35
2018-03-20T11:44:30.239Z,42.90
2018-03-20T11:46:57.647Z,42.54
2018-03-20T11:49:25.036Z,42.88
2018-03-20T11:51:52.426Z,43.18
2018-03-20T11:54:19.856Z,42.16
2018-03-20T11:56:47.244Z,42.03
2018-03-20T11:59:14.661Z,41.82
2018-03-20T12:01:42.051Z,41.66
2018-03-20T12:04:09.446Z,41.57
2018-03-20T12:06:36.868Z,41.85
2018-03-20T12:12:10.817Z,39.13
2018-03-20T12:14:38.212Z,39.99
2018-03-20T12:17:05.602Z,38.70
2018-03-20T12:19:33.000Z,38.02
2018-03-20T12:22:00.384Z,38.43
2018-03-20T12:24:28.107Z,39.06
2018-03-20T12:26:55.512Z,39.04
2018-03-20T12:29:22.924Z,39.87
2018-03-20T12:31:50.392Z,40.75
2018-03-20T12:34:18.172Z,40.32
2018-03-20T12:36:45.571Z,39.92
2018-03-20T12:39:12.968Z,39.71
2018-03-20T12:41:40.391Z,39.36
2018-03-20T12:44:07.784Z,39.34
2018-03-20T12:46:35.211Z,38.72
2018-03-20T12:49:02.585Z,38.02
2018-03-20T12:51:29.980Z,38.39
2018-03-20T12:53:57.372Z,38.97
2018-03-20T12:56:24.776Z,39.59
2018-03-20T12:58:52.200Z,39.54
2018-03-20T13:01:19.631Z,37.77
2018-03-20T13:03:47.045Z,37.90
2018-03-20T13:06:14.467Z,38.09
2018-03-20T13:08:41.942Z,37.80
2018-03-20T13:11:09.331Z,38.31
2018-03-20T13:13:36.716Z,39.04
2018-03-20T13:16:04.117Z,38.07
2018-03-20T13:18:31.504Z,38.25
2018-03-20T13:20:58.919Z,39.01
2018-03-20T13:23:26.407Z,37.20
2018-03-20T13:25:53.883Z,37.09
2018-03-20T13:28:21.269Z,37.09
2018-03-20T13:31:00.707Z,37.46
2018-03-20T13:33:28.216Z,38.35
2018-03-20T13:35:55.964Z,38.31
2018-03-20T13:38:23.354Z,37.87
2018-03-20T13:40:50.758Z,37.91
2018-03-20T13:43:18.568Z,37.34
2018-03-20T13:45:45.947Z,37.98
2018-03-20T13:48:13.327Z,37.73
2018-03-20T13:50:40.739Z,37.82
2018-03-20T13:53:08.133Z,37.63
2018-03-20T13:55:35.535Z,38.15
2018-03-20T13:58:02.949Z,39.07
2018-03-20T14:00:30.363Z,38.83
2018-03-20T14:02:57.776Z,39.18
2018-03-20T14:05:25.178Z,38.41
2018-03-20T14:07:52.598Z,38.48
2018-03-20T14:10:19.986Z,37.52
2018-03-20T14:12:47.398Z,37.04
2018-03-20T14:15:14.858Z,36.37
2018-03-20T14:17:43.463Z,36.09
2018-03-20T14:20:12.508Z,34.87
2018-03-20T14:22:39.922Z,35.23
2018-03-20T14:25:07.320Z,35.56
2018-03-20T14:27:34.727Z,36.30
2018-03-20T14:30:02.146Z,36.55
2018-03-20T14:32:29.536Z,36.90
2018-03-20T14:34:56.938Z,36.61
2018-03-20T14:37:24.321Z,36.39
2018-03-20T14:39:51.736Z,36.46
2018-03-20T14:42:19.124Z,35.55
2018-03-20T14:44:46.561Z,36.04
2018-03-20T14:47:13.948Z,36.22
2018-03-20T14:49:41.359Z,36.36
2018-03-20T14:52:08.759Z,36.11
2018-03-20T14:54:36.154Z,35.24
2018-03-20T14:57:03.577Z,35.90
2018-03-20T14:59:30.966Z,36.28
2018-03-20T15:01:58.369Z,36.84
2018-03-20T15:04:25.778Z,36.97
2018-03-20T15:06:53.247Z,36.65
2018-03-20T15:09:20.645Z,36.95
2018-03-20T15:11:48.028Z,36.66
2018-03-20T15:14:15.431Z,37.07
2018-03-20T15:16:42.819Z,37.20
2018-03-20T15:19:10.223Z,37.54
2018-03-20T15:21:37.611Z,35.79
2018-03-20T15:24:05.024Z,34.43
2018-03-20T15:26:32.403Z,34.22
2018-03-20T15:28:59.807Z,33.09
2018-03-20T15:31:27.207Z,33.75
2018-03-20T15:33:54.619Z,34.11
2018-03-20T15:36:22.018Z,34.91
2018-03-20T15:38:50.403Z,34.83
2018-03-20T15:41:17.809Z,35.10
2018-03-20T15:43:45.484Z,35.22
2018-03-20T15:46:12.884Z,35.04
2018-03-20T15:48:40.275Z,34.70
2018-03-20T15:51:07.904Z,34.13
2018-03-20T15:53:35.288Z,34.31
2018-03-20T15:56:02.688Z,34.12
2018-03-20T15:58:30.110Z,34.47
2018-03-20T16:00:57.555Z,35.00
2018-03-20T16:03:24.947Z,35.54
2018-03-20T16:05:52.355Z,34.92
2018-03-20T16:08:19.799Z,34.67
2018-03-20T16:10:47.181Z,34.34
2018-03-20T16:13:15.008Z,34.42
2018-03-20T16:15:42.619Z,34.77
2018-03-20T16:18:11.067Z,34.96
2018-03-20T16:20:38.728Z,35.52
2018-03-20T16:23:06.379Z,35.68
2018-03-20T16:25:34.056Z,36.05
2018-03-20T16:28:01.736Z,36.63
2018-03-20T16:30:29.417Z,36.58
2018-03-20T16:32:57.068Z,36.63
2018-03-20T16:35:24.757Z,36.68
2018-03-20T16:37:52.385Z,36.20
2018-03-20T16:40:20.285Z,36.35
2018-03-20T16:42:48.080Z,36.53
2018-03-20T16:45:15.732Z,36.35
2018-03-20T16:47:43.440Z,36.12
2018-03-20T16:50:11.031Z,36.17
2018-03-20T16:52:38.795Z,36.12
2018-03-20T16:55:06.446Z,35.74
2018-03-20T16:57:34.082Z,35.43
2018-03-20T17:00:01.755Z,35.65
2018-03-20T17:02:29.634Z,35.42
2018-03-20T17:04:57.267Z,35.70
2018-03-20T17:07:24.866Z,35.97
2018-03-20T17:09:52.530Z,36.28
2018-03-20T17:12:20.185Z,36.65
2018-03-20T17:14:47.892Z,36.63
2018-03-20T17:17:15.619Z,37.05
2018-03-20T17:19:43.331Z,37.12
2018-03-20T17:22:10.942Z,37.25
2018-03-20T17:24:38.883Z,37.50
2018-03-20T17:27:06.537Z,37.41
2018-03-20T17:29:34.140Z,37.77
2018-03-20T17:32:01.818Z,37.99
2018-03-20T17:34:29.482Z,38.10
2018-03-20T17:36:57.182Z,38.09
2018-03-20T17:39:24.810Z,38.20
2018-03-20T17:41:52.549Z,38.29
2018-03-20T17:44:20.720Z,38.69
2018-03-20T17:46:48.366Z,38.96
2018-03-20T17:49:16.255Z,39.12
2018-03-20T17:51:44.007Z,39.40
2018-03-20T17:54:11.775Z,39.52
2018-03-20T17:56:39.214Z,39.80
2018-03-20T17:59:06.620Z,40.11
2018-03-20T18:01:34.025Z,40.36
2018-03-20T18:04:01.451Z,40.72
2018-03-20T18:06:28.897Z,40.89
2018-03-20T18:08:56.271Z,41.15
2018-03-20T18:11:23.674Z,41.34
2018-03-20T18:13:51.114Z,41.40
2018-03-20T18:16:18.503Z,41.64
2018-03-20T18:18:45.948Z,42.00
2018-03-20T18:21:13.342Z,42.04
2018-03-20T18:23:40.897Z,42.41
2018-03-20T18:26:08.305Z,42.36
2018-03-20T18:28:35.736Z,42.74
2018-03-20T18:31:03.214Z,42.73
2018-03-20T18:33:30.623Z,43.11
2018-03-20T18:35:58.047Z,43.29
2018-03-20T18:38:25.443Z,43.45
2018-03-20T18:40:52.856Z,43.65
2018-03-20T18:43:20.256Z,43.90
2018-03-20T18:45:47.671Z,44.02
2018-03-20T18:48:15.056Z,44.24
2018-03-20T18:50:42.469Z,44.26
2018-03-20T18:53:09.860Z,44.33
2018-03-20T18:55:37.268Z,44.57
2018-03-20T18:58:04.671Z,44.74
2018-03-20T19:00:32.056Z,44.80
2018-03-20T19:02:59.450Z,45.00
2018-03-20T19:05:26.871Z,45.44
2018-03-20T19:07:54.266Z,45.59
2018-03-20T19:10:21.680Z,45.95
2018-03-20T19:12:49.079Z,46.17
2018-03-20T19:15:16.523Z,46.33
2018-03-20T19:17:44.209Z,46.59
2018-03-20T19:20:11.635Z,46.93
2018-03-20T19:22:39.020Z,47.67
2018-03-20T19:25:06.436Z,48.27
2018-03-20T19:27:33.850Z,49.31
2018-03-20T19:30:01.531Z,50.08
2018-03-20T19:32:28.946Z,50.73
2018-03-20T19:34:56.331Z,51.28
2018-03-20T19:37:23.743Z,51.83
2018-03-20T19:39:51.141Z,51.94
2018-03-20T19:42:18.541Z,52.36
2018-03-20T19:44:46.103Z,52.15
2018-03-20T19:47:13.630Z,52.79
2018-03-20T19:49:41.044Z,53.41
2018-03-20T19:52:08.540Z,53.83
2018-03-20T19:54:35.941Z,54.02
2018-03-20T19:57:03.472Z,54.53
2018-03-20T19:59:30.868Z,54.91
2018-03-20T20:01:58.256Z,55.56
2018-03-20T20:04:25.785Z,55.73
2018-03-20T20:06:53.174Z,56.21
2018-03-20T20:09:20.582Z,56.63
2018-03-20T20:11:47.982Z,56.93
2018-03-20T20:14:15.418Z,56.90
2018-03-20T20:16:42.774Z,57.51
2018-03-20T20:19:10.163Z,57.62
2018-03-20T20:21:37.591Z,57.84
2018-03-20T20:24:04.992Z,57.93
2018-03-20T20:26:32.540Z,58.14
2018-03-20T20:28:59.932Z,58.16
2018-03-20T20:31:27.327Z,58.63
2018-03-20T20:33:54.739Z,58.40
2018-03-20T20:36:22.180Z,59.08
2018-03-20T20:38:49.606Z,59.68
2018-03-20T20:41:17.043Z,60.01
2018-03-20T20:43:44.476Z,60.41
2018-03-20T20:46:11.984Z,60.63
2018-03-20T20:48:39.391Z,60.63
2018-03-20T20:51:06.784Z,60.25
2018-03-20T20:53:34.204Z,61.20
2018-03-20T20:56:01.596Z,61.58
2018-03-20T20:58:29.018Z,60.77
2018-03-20T21:00:56.404Z,60.83
2018-03-20T21:03:23.796Z,61.39
2018-03-20T21:05:51.243Z,61.75
2018-03-20T21:08:18.667Z,61.75
2018-03-20T21:10:46.136Z,60.95
2018-03-20T21:13:13.552Z,61.33
2018-03-20T21:15:40.983Z,62.12
2018-03-20T21:18:08.731Z,62.09
2018-03-20T21:20:36.118Z,62.04
2018-03-20T21:23:03.520Z,62.07
2018-03-20T21:25:30.920Z,63.39
2018-03-20T21:27:58.425Z,62.36
2018-03-20T21:30:25.757Z,62.60
2018-03-20T21:32:53.168Z,63.89
2018-03-20T21:35:21.010Z,63.29
2018-03-20T21:37:48.406Z,64.07
2018-03-20T21:40:15.831Z,64.51
2018-03-20T21:42:43.263Z,64.23
2018-03-20T21:45:10.691Z,64.29
2018-03-20T21:47:38.091Z,64.85
2018-03-20T21:50:05.506Z,65.61
2018-03-20T21:52:32.919Z,65.10
2018-03-20T21:55:00.324Z,65.39
2018-03-20T21:57:27.723Z,65.55
2018-03-20T21:59:55.140Z,65.39
2018-03-20T22:02:22.630Z,65.08
2018-03-20T22:04:50.113Z,65.98
2018-03-20T22:07:17.538Z,66.33
2018-03-20T22:09:44.965Z,66.27
2018-03-20T22:12:12.392Z,66.08
2018-03-20T22:14:39.812Z,65.86
2018-03-20T22:17:07.290Z,65.96
2018-03-20T22:19:34.732Z,65.56
2018-03-20T22:22:02.133Z,66.31
2018-03-20T22:24:29.535Z,66.19
2018-03-20T22:26:56.940Z,66.19
2018-03-20T22:29:24.405Z,67.45
2018-03-20T22:31:51.836Z,66.79
2018-03-20T22:34:19.263Z,66.46
2018-03-20T22:36:46.656Z,66.40
2018-03-20T22:39:14.094Z,67.45
2018-03-20T22:41:41.608Z,67.44
2018-03-20T22:44:08.939Z,67.30
2018-03-20T22:46:36.660Z,67.28
2018-03-20T22:49:04.095Z,67.75
2018-03-20T22:51:31.477Z,67.64
2018-03-20T22:53:58.883Z,66.64
2018-03-20T22:56:26.292Z,65.99
2018-03-20T22:58:53.701Z,66.42
2018-03-20T23:01:21.123Z,65.97
2018-03-20T23:03:48.548Z,66.92
2018-03-20T23:06:16.005Z,66.28
2018-03-20T23:08:43.472Z,66.06
2018-03-20T23:11:10.872Z,67.09
2018-03-20T23:13:38.280Z,67.48
2018-03-20T23:16:05.698Z,67.08
2018-03-20T23:18:33.091Z,67.81
2018-03-20T23:21:00.652Z,67.45
2018-03-20T23:23:28.059Z,67.56
2018-03-20T23:25:55.459Z,67.70
2018-03-20T23:28:22.872Z,67.30
2018-03-20T23:30:50.275Z,68.09
2018-03-20T23:33:17.705Z,67.57
2018-03-20T23:35:45.087Z,68.36
2018-03-20T23:38:12.500Z,67.67
2018-03-20T23:40:39.898Z,66.98
2018-03-20T23:43:07.656Z,66.73
2018-03-20T23:45:39.672Z,66.81
2018-03-20T23:48:07.080Z,66.77
2018-03-20T23:50:34.772Z,66.36
2018-03-20T23:53:02.164Z,66.50
2018-03-20T23:55:29.571Z,66.45
2018-03-20T23:57:56.967Z,66.42
